Time;durP1;ratioP1;P1;durP2;ratioP2;P2;SDS_P1;SDS_P2;PMS_P1;PMS_P2;Temp;Humidity;BMP_temperature;BMP_pressure;BME280_temperature;BME280_humidity;BME280_pressure;Samples;Min_cycle;Max_cycle;Signal;HPM_P1;HPM_P2
2022/05/04 00:02:25;;;;;;;1999.90;999.90;;;11.80;99.90;;;;;;4895596;29;20021;-79
2022/05/04 00:04:51;;;;;;;1999.90;999.90;;;11.80;99.90;;;;;;4897788;29;20040;-78
2022/05/04 00:07:17;;;;;;;1999.90;999.90;;;11.70;99.90;;;;;;4899344;29;20457;-78
2022/05/04 00:09:42;;;;;;;1999.90;999.90;;;11.70;99.90;;;;;;4897879;29;20041;-78
2022/05/04 00:12:08;;;;;;;1999.90;999.90;;;11.70;99.90;;;;;;4897523;29;20412;-78
2022/05/04 00:14:34;;;;;;;1999.90;999.90;;;11.70;99.90;;;;;;4896803;29;20085;-80
2022/05/04 00:17:00;;;;;;;1999.90;999.90;;;11.60;99.90;;;;;;4897841;29;20449;-78
2022/05/04 00:19:25;;;;;;;1999.90;999.90;;;11.60;99.90;;;;;;4897540;29;20032;-78
2022/05/04 00:21:51;;;;;;;1999.90;999.90;;;11.60;99.90;;;;;;4897885;29;20092;-78
2022/05/04 00:24:19;;;;;;;1999.90;999.90;;;11.60;99.90;;;;;;4897291;29;20101;-78
2022/05/04 00:26:46;;;;;;;1999.90;999.90;;;11.50;99.90;;;;;;4900530;29;20033;-79
2022/05/04 00:29:12;;;;;;;1999.90;999.90;;;11.50;99.90;;;;;;4896269;29;20032;-80
2022/05/04 00:31:38;;;;;;;1999.90;999.90;;;11.40;99.90;;;;;;4897882;29;20388;-80
2022/05/04 00:34:03;;;;;;;1999.90;999.90;;;11.50;99.90;;;;;;4897843;29;20033;-78
2022/05/04 00:36:29;;;;;;;1999.90;999.90;;;11.40;99.90;;;;;;4897575;29;20036;-78
2022/05/04 00:38:55;;;;;;;1999.90;999.90;;;11.40;99.90;;;;;;4899772;29;20075;-78
2022/05/04 00:41:20;;;;;;;1999.90;999.90;;;11.40;99.90;;;;;;4897417;29;20033;-79
2022/05/04 00:43:53;;;;;;;1999.90;999.90;;;11.40;99.90;;;;;;4897163;29;20107;-78
2022/05/04 00:46:20;;;;;;;1999.90;999.90;;;11.30;99.90;;;;;;4898911;29;20052;-77
2022/05/04 00:48:46;;;;;;;1999.90;999.90;;;11.30;99.90;;;;;;4896941;29;20033;-80
2022/05/04 00:51:12;;;;;;;1999.90;999.90;;;11.30;99.90;;;;;;4900146;29;20099;-78
2022/05/04 00:53:39;;;;;;;1999.90;999.90;;;11.20;99.90;;;;;;4901370;29;20100;-80
2022/05/04 00:56:08;;;;;;;1999.90;999.90;;;11.20;99.90;;;;;;4890149;29;20027;-79
2022/05/04 01:01:30;;;;;;;1999.90;999.90;;;11.20;99.90;;;;;;4901370;29;20031;-78
2022/05/04 01:03:58;;;;;;;1999.90;999.90;;;11.20;99.90;;;;;;4899227;29;20025;-77
2022/05/04 01:06:25;;;;;;;1999.90;999.90;;;11.20;99.90;;;;;;4901282;29;20028;-80
2022/05/04 01:08:51;;;;;;;1999.90;999.90;;;11.20;99.90;;;;;;4901034;29;20233;-80
2022/05/04 01:11:18;;;;;;;1999.90;999.90;;;11.20;99.90;;;;;;4900835;29;20139;-78
2022/05/04 01:14:04;;;;;;;1999.90;999.90;;;11.20;99.90;;;;;;4900175;29;20031;-80
2022/05/04 01:16:30;;;;;;;1999.90;999.90;;;11.20;99.90;;;;;;4901186;29;20080;-78
2022/05/04 01:18:56;;;;;;;1999.90;999.90;;;11.10;99.90;;;;;;4899928;29;20029;-78
2022/05/04 01:21:22;;;;;;;1999.90;999.90;;;11.10;99.90;;;;;;4900471;29;20500;-79
2022/05/04 01:23:47;;;;;;;1999.90;999.90;;;11.10;99.90;;;;;;4902649;29;20040;-78
2022/05/04 01:26:16;;;;;;;1999.90;999.90;;;11.10;99.90;;;;;;4900645;29;20127;-78
2022/05/04 01:28:43;;;;;;;1999.90;999.90;;;11.10;99.90;;;;;;4901063;29;20080;-80
2022/05/04 01:31:09;;;;;;;1999.90;999.90;;;11.10;99.90;;;;;;4899313;29;20067;-79
2022/05/04 01:33:35;;;;;;;1999.90;999.90;;;11.10;99.90;;;;;;4898726;29;20477;-78
2022/05/04 01:36:00;;;;;;;1999.90;999.90;;;11.10;99.90;;;;;;4900865;29;20025;-78
2022/05/04 01:38:26;;;;;;;1999.90;999.90;;;11.00;99.90;;;;;;4903695;29;20036;-80
2022/05/04 01:40:52;;;;;;;1999.90;999.90;;;11.00;99.90;;;;;;4902215;29;20029;-77
2022/05/04 01:43:17;;;;;;;1999.90;999.90;;;11.00;99.90;;;;;;4900298;29;20036;-77
2022/05/04 01:45:43;;;;;;;1999.90;999.90;;;11.00;99.90;;;;;;4900285;29;20191;-80
2022/05/04 01:48:12;;;;;;;1999.90;999.90;;;11.10;99.90;;;;;;4899846;29;20032;-78
2022/05/04 01:50:37;;;;;;;1999.90;999.90;;;11.00;99.90;;;;;;4900041;29;20028;-78
2022/05/04 01:53:03;;;;;;;1999.90;999.90;;;11.00;99.90;;;;;;4900350;29;20033;-78
2022/05/04 01:55:32;;;;;;;1999.90;999.90;;;11.00;99.90;;;;;;4890833;29;20051;-78
2022/05/04 01:57:58;;;;;;;1999.90;999.90;;;11.00;99.90;;;;;;4900304;29;20045;-80
2022/05/04 02:00:24;;;;;;;1999.90;999.90;;;11.00;99.90;;;;;;4900152;29;20421;-79
2022/05/04 02:02:50;;;;;;;1999.90;999.90;;;11.00;99.90;;;;;;4897778;29;20028;-78
2022/05/04 02:05:16;;;;;;;1999.90;999.90;;;10.90;99.90;;;;;;4898447;29;20039;-78
2022/05/04 02:07:42;;;;;;;1999.90;999.90;;;10.90;99.90;;;;;;4900493;29;20032;-79
2022/05/04 02:10:10;;;;;;;1999.90;999.90;;;10.90;99.90;;;;;;4897864;29;20112;-79
2022/05/04 02:12:36;;;;;;;1999.90;999.90;;;10.90;99.90;;;;;;4900371;29;20511;-79
2022/05/04 02:15:04;;;;;;;1999.90;999.90;;;10.90;99.90;;;;;;4903078;29;20021;-78
2022/05/04 02:17:29;;;;;;;1999.90;999.90;;;10.90;99.90;;;;;;4899873;29;20040;-78
2022/05/04 02:19:55;;;;;;;1999.90;999.90;;;10.90;99.90;;;;;;4899593;29;20412;-78
2022/05/04 02:22:20;;;;;;;1999.90;999.90;;;10.80;99.90;;;;;;4899955;29;20037;-78
2022/05/04 02:24:46;;;;;;;1999.90;999.90;;;10.80;99.90;;;;;;4899635;29;20064;-78
2022/05/04 02:27:12;;;;;;;1999.90;999.90;;;10.80;99.90;;;;;;4900021;29;20039;-78
2022/05/04 02:29:37;;;;;;;1999.90;999.90;;;10.80;99.90;;;;;;4899364;29;20445;-78
2022/05/04 02:32:04;;;;;;;1999.90;999.90;;;10.70;99.90;;;;;;4900034;29;20476;-79
2022/05/04 02:34:29;;;;;;;1999.90;999.90;;;10.70;99.90;;;;;;4899445;29;20081;-78
2022/05/04 02:39:39;;;;;;;1999.90;999.90;;;10.70;99.90;;;;;;4902027;29;20036;-78
2022/05/04 02:42:05;;;;;;;1999.90;999.90;;;10.70;99.90;;;;;;4899164;29;20407;-78
2022/05/04 02:44:31;;;;;;;1999.90;999.90;;;10.60;99.90;;;;;;4891022;29;20043;-78
2022/05/04 02:46:56;;;;;;;1999.90;999.90;;;10.60;99.90;;;;;;4899774;29;20111;-80
2022/05/04 02:49:22;;;;;;;1999.90;999.90;;;10.60;99.90;;;;;;4897066;29;20055;-79
2022/05/04 02:51:48;;;;;;;1999.90;999.90;;;10.60;99.90;;;;;;4897992;29;20024;-79
2022/05/04 02:54:13;;;;;;;1999.90;999.90;;;10.60;99.90;;;;;;4897120;29;20117;-79
2022/05/04 02:56:39;;;;;;;1999.90;999.90;;;10.60;99.90;;;;;;4890307;29;20031;-78
2022/05/04 02:59:05;;;;;;;1999.90;999.90;;;10.60;99.90;;;;;;4897305;29;20029;-80
2022/05/04 03:04:15;;;;;;;1999.90;999.90;;;10.70;99.90;;;;;;4898478;29;20504;-78
2022/05/04 03:06:41;;;;;;;1999.90;999.90;;;10.60;99.90;;;;;;4898867;29;20033;-78
2022/05/04 03:09:09;;;;;;;1999.90;999.90;;;10.60;99.90;;;;;;4898978;29;20041;-78
2022/05/04 03:14:20;;;;;;;1999.90;999.90;;;10.50;99.90;;;;;;4898527;29;20031;-77
2022/05/04 03:16:46;;;;;;;1999.90;999.90;;;10.40;99.90;;;;;;4900558;29;20080;-78
2022/05/04 03:19:12;;;;;;;1999.90;999.90;;;10.40;99.90;;;;;;4897589;29;20032;-77
2022/05/04 03:21:37;;;;;;;1999.90;999.90;;;10.30;99.90;;;;;;4898623;29;20043;-77
2022/05/04 03:24:03;;;;;;;1999.90;999.90;;;10.30;99.90;;;;;;4898989;29;20033;-77
2022/05/04 03:26:29;;;;;;;1999.90;999.90;;;10.30;99.90;;;;;;4898314;29;20032;-77
2022/05/04 03:28:55;;;;;;;1999.90;999.90;;;10.30;99.90;;;;;;4898609;29;20400;-77
2022/05/04 03:31:21;;;;;;;1999.90;999.90;;;10.30;99.90;;;;;;4898544;29;20025;-77
2022/05/04 03:33:47;;;;;;;1999.90;999.90;;;10.30;99.90;;;;;;4898519;29;20029;-78
2022/05/04 03:36:13;;;;;;;1999.90;999.90;;;10.30;99.90;;;;;;4899708;29;20099;-77
2022/05/04 03:38:39;;;;;;;1999.90;999.90;;;10.30;99.90;;;;;;4901478;29;20037;-77
2022/05/04 03:41:05;;;;;;;1999.90;999.90;;;10.30;99.90;;;;;;4898254;29;20043;-78
2022/05/04 03:43:30;;;;;;;1999.90;999.90;;;10.30;99.90;;;;;;4898037;29;20048;-78
2022/05/04 03:46:11;;;;;;;1999.90;999.90;;;10.30;99.90;;;;;;4898214;29;20137;-78
2022/05/04 03:48:37;;;;;;;1999.90;999.90;;;10.30;99.90;;;;;;4897778;29;20036;-77
2022/05/04 03:51:02;;;;;;;1999.90;999.90;;;10.20;99.90;;;;;;4896564;29;20028;-77
2022/05/04 03:53:28;;;;;;;1999.90;999.90;;;10.30;99.90;;;;;;4897471;29;20088;-77
2022/05/04 03:55:54;;;;;;;1999.90;999.90;;;10.30;99.90;;;;;;4887486;29;20029;-77
2022/05/04 03:58:19;;;;;;;1999.90;999.90;;;10.20;99.90;;;;;;4896471;29;20056;-77
2022/05/04 04:00:45;;;;;;;1999.90;999.90;;;10.20;99.90;;;;;;4898097;29;20020;-77
2022/05/04 04:03:10;;;;;;;1999.90;999.90;;;10.20;99.90;;;;;;4895907;29;20037;-78
2022/05/04 04:05:36;;;;;;;1999.90;999.90;;;10.20;99.90;;;;;;4897916;29;20028;-76
2022/05/04 04:08:02;;;;;;;1999.90;999.90;;;10.20;99.90;;;;;;4898247;29;20029;-77
2022/05/04 04:10:27;;;;;;;1999.90;999.90;;;10.20;99.90;;;;;;4897315;29;20028;-78
2022/05/04 04:12:53;;;;;;;1999.90;999.90;;;10.20;99.90;;;;;;4896673;29;20032;-77
2022/05/04 04:15:18;;;;;;;1999.90;999.90;;;10.20;99.90;;;;;;4898803;29;20017;-76
2022/05/04 04:17:44;;;;;;;1999.90;999.90;;;10.20;99.90;;;;;;4919238;29;20025;-77
2022/05/04 04:22:54;;;;;;;1999.90;999.90;;;10.20;99.90;;;;;;4897830;29;20028;-78
2022/05/04 04:25:20;;;;;;;1999.90;999.90;;;10.20;99.90;;;;;;4897652;29;20036;-77
2022/05/04 04:27:45;;;;;;;1999.90;999.90;;;10.10;99.90;;;;;;4897443;29;20099;-77
2022/05/04 04:30:12;;;;;;;1999.90;999.90;;;10.10;99.90;;;;;;4897440;29;20036;-77
2022/05/04 04:32:38;;;;;;;1999.90;999.90;;;10.10;99.90;;;;;;4897660;29;20017;-78
2022/05/04 04:35:04;;;;;;;1999.90;999.90;;;10.00;99.90;;;;;;4910191;29;20063;-78
2022/05/04 04:37:29;;;;;;;1999.90;999.90;;;10.00;99.90;;;;;;4919510;29;20023;-75
2022/05/04 04:39:55;;;;;;;1999.90;999.90;;;10.00;99.90;;;;;;4898058;29;20103;-77
2022/05/04 04:42:21;;;;;;;1999.90;999.90;;;9.90;99.90;;;;;;4895717;29;20496;-76
2022/05/04 04:44:46;;;;;;;1999.90;999.90;;;9.90;99.90;;;;;;4897292;29;20095;-77
2022/05/04 04:47:12;;;;;;;1999.90;999.90;;;9.90;99.90;;;;;;4897482;29;20028;-78
2022/05/04 04:49:37;;;;;;;1999.90;999.90;;;9.90;99.90;;;;;;4896745;29;20040;-77
2022/05/04 04:52:03;;;;;;;1999.90;999.90;;;10.00;99.90;;;;;;4897741;29;20531;-78
2022/05/04 04:54:29;;;;;;;1999.90;999.90;;;10.00;99.90;;;;;;4893651;29;20108;-77
2022/05/04 04:56:55;;;;;;;1999.90;999.90;;;10.00;99.90;;;;;;4890115;29;20095;-77
2022/05/04 04:59:20;;;;;;;1999.90;999.90;;;10.00;99.90;;;;;;4895630;29;20041;-78
2022/05/04 05:01:46;;;;;;;1999.90;999.90;;;10.00;99.90;;;;;;4894799;29;20032;-78
2022/05/04 05:04:11;;;;;;;1999.90;999.90;;;10.00;99.90;;;;;;4895604;29;20507;-77
2022/05/04 05:06:37;;;;;;;1999.90;999.90;;;10.00;99.90;;;;;;4896469;29;20040;-77
2022/05/04 05:09:03;;;;;;;1999.90;999.90;;;10.00;99.90;;;;;;4896374;29;20115;-77
2022/05/04 05:11:28;;;;;;;1999.90;999.90;;;10.00;99.90;;;;;;4896191;29;20508;-77
2022/05/04 05:16:38;;;;;;;1999.90;999.90;;;9.90;99.90;;;;;;4895803;29;20036;-78
2022/05/04 05:19:04;;;;;;;1999.90;999.90;;;9.90;99.90;;;;;;4903476;29;20012;-76
2022/05/04 05:21:29;;;;;;;1999.90;999.90;;;9.90;99.90;;;;;;4917115;29;20067;-76
2022/05/04 05:23:55;;;;;;;1999.90;999.90;;;9.90;99.90;;;;;;4898908;29;20056;-78
2022/05/04 05:26:21;;;;;;;1999.90;999.90;;;9.90;99.90;;;;;;4895599;29;20061;-78
2022/05/04 05:28:47;;;;;;;1999.90;999.90;;;10.00;99.90;;;;;;4896161;29;20032;-78
2022/05/04 05:31:13;;;;;;;1999.90;999.90;;;10.00;99.90;;;;;;4896218;29;20036;-79
2022/05/04 05:33:39;;;;;;;1999.90;999.90;;;10.10;99.90;;;;;;4897305;29;20067;-80
2022/05/04 05:36:06;;;;;;;1999.90;999.90;;;10.20;99.90;;;;;;4892937;29;20441;-78
2022/05/04 05:38:31;;;;;;;1999.90;999.90;;;10.20;99.90;;;;;;4903005;29;20049;-80
2022/05/04 05:40:57;;;;;;;1999.90;999.90;;;10.20;99.90;;;;;;4895029;29;20033;-80
2022/05/04 05:43:23;;;;;;;1999.90;999.90;;;10.30;99.90;;;;;;4898637;29;20033;-79
2022/05/04 05:45:48;;;;;;;1999.90;999.90;;;10.30;99.90;;;;;;4894367;29;20572;-79
2022/05/04 05:48:14;;;;;;;1999.90;999.90;;;10.40;99.90;;;;;;4901464;29;20040;-79
2022/05/04 05:50:40;;;;;;;1999.90;999.90;;;10.50;99.90;;;;;;4904380;29;20079;-82
2022/05/04 05:53:05;;;;;;;1999.90;999.90;;;10.50;99.90;;;;;;4906372;29;20119;-82
2022/05/04 05:55:31;;;;;;;1999.90;999.90;;;10.60;99.90;;;;;;4892677;29;20036;-80
2022/05/04 05:57:59;;;;;;;1999.90;999.90;;;10.70;99.90;;;;;;4899711;29;20028;-80
2022/05/04 06:00:24;;;;;;;1999.90;999.90;;;10.80;99.90;;;;;;4908757;29;20487;-82
2022/05/04 06:02:50;;;;;;;1999.90;999.90;;;10.90;99.90;;;;;;4897085;29;20033;-79
2022/05/04 06:05:15;;;;;;;1999.90;999.90;;;10.90;99.90;;;;;;4899257;29;20088;-82
2022/05/04 06:07:41;;;;;;;1999.90;999.90;;;11.00;99.90;;;;;;4898350;29;20536;-80
2022/05/04 06:10:07;;;;;;;1999.90;999.90;;;11.00;99.90;;;;;;4905817;29;20040;-79
2022/05/04 06:12:33;;;;;;;1999.90;999.90;;;11.10;99.90;;;;;;4895629;29;20172;-79
2022/05/04 06:14:59;;;;;;;1999.90;999.90;;;11.10;99.90;;;;;;4910138;29;20115;-79
2022/05/04 06:17:25;;;;;;;1999.90;999.90;;;11.20;99.90;;;;;;4897093;29;20029;-79
2022/05/04 06:19:51;;;;;;;1999.90;999.90;;;11.20;99.90;;;;;;4903288;29;20044;-79
2022/05/04 06:22:16;;;;;;;1999.90;999.90;;;11.30;99.90;;;;;;4910133;29;20039;-79
2022/05/04 06:24:42;;;;;;;1999.90;999.90;;;11.40;99.90;;;;;;4888969;29;20488;-78
2022/05/04 06:27:08;;;;;;;1999.90;999.90;;;11.50;99.90;;;;;;4888965;29;20040;-80
2022/05/04 06:35:04;;;;;;;1999.90;999.90;;;11.70;99.90;;;;;;4908875;29;20078;-80
2022/05/04 06:37:30;;;;;;;1999.90;999.90;;;11.80;99.90;;;;;;4906943;29;20032;-80
2022/05/04 06:39:56;;;;;;;1999.90;999.90;;;11.90;99.90;;;;;;4900535;29;20042;-81
2022/05/04 06:42:22;;;;;;;1999.90;999.90;;;12.00;99.90;;;;;;4901975;29;20036;-81
2022/05/04 06:44:47;;;;;;;1999.90;999.90;;;12.10;99.90;;;;;;4897182;29;20037;-82
2022/05/04 06:47:13;;;;;;;1999.90;999.90;;;12.20;99.90;;;;;;4897474;29;20036;-82
2022/05/04 06:49:39;;;;;;;1999.90;999.90;;;12.20;99.90;;;;;;4896399;29;20040;-80
2022/05/04 06:52:05;;;;;;;1999.90;999.90;;;12.30;99.90;;;;;;4908646;29;20078;-81
2022/05/04 06:54:31;;;;;;;1999.90;999.90;;;12.40;99.90;;;;;;4897300;29;20048;-81
2022/05/04 06:56:56;;;;;;;1999.90;999.90;;;12.50;99.90;;;;;;4896261;29;20028;-80
2022/05/04 06:59:23;;;;;;;1999.90;999.90;;;12.60;99.90;;;;;;4893969;29;20373;-81
2022/05/04 07:01:48;;;;;;;1999.90;999.90;;;12.70;99.90;;;;;;4888750;29;20491;-81
2022/05/04 07:04:14;;;;;;;1999.90;999.90;;;12.90;99.90;;;;;;4898089;29;20044;-82
2022/05/04 07:06:40;;;;;;;1999.90;999.90;;;13.00;99.90;;;;;;4893277;29;20036;-81
2022/05/04 07:09:05;;;;;;;1999.90;999.90;;;13.20;99.90;;;;;;4896830;29;20040;-82
2022/05/04 07:11:32;;;;;;;1999.90;999.90;;;13.30;99.90;;;;;;4891080;29;20433;-81
2022/05/04 07:13:58;;;;;;;1999.90;999.90;;;13.40;99.90;;;;;;4892859;29;20024;-81
2022/05/04 07:16:24;;;;;;;1999.90;999.90;;;13.50;99.90;;;;;;4890204;29;20020;-81
2022/05/04 07:18:49;;;;;;;1999.90;999.90;;;13.70;99.90;;;;;;4890367;29;20029;-81
2022/05/04 07:21:15;;;;;;;1999.90;999.90;;;13.90;99.90;;;;;;4896179;29;20040;-81
2022/05/04 07:23:40;;;;;;;1999.90;999.90;;;14.10;99.90;;;;;;4895930;29;20036;-81
2022/05/04 07:26:06;;;;;;;1999.90;999.90;;;14.20;99.90;;;;;;4893109;29;20418;-80
2022/05/04 07:28:32;;;;;;;1999.90;999.90;;;14.30;99.90;;;;;;4897449;29;20068;-81
2022/05/04 07:30:57;;;;;;;1999.90;999.90;;;14.50;99.90;;;;;;4897248;29;20527;-82
2022/05/04 07:33:23;;;;;;;1999.90;999.90;;;14.60;99.90;;;;;;4891905;29;20167;-81
2022/05/04 07:35:49;;;;;;;1999.90;999.90;;;14.70;99.90;;;;;;4889034;29;20025;-82
2022/05/04 07:38:14;;;;;;;1999.90;999.90;;;14.90;99.90;;;;;;4904427;29;20068;-81
2022/05/04 07:43:25;;;;;;;1999.90;999.90;;;15.10;99.90;;;;;;4890134;29;20043;-81
2022/05/04 07:45:50;;;;;;;1999.90;999.90;;;15.50;99.90;;;;;;4895651;29;20055;-81
2022/05/04 07:48:16;;;;;;;1999.90;999.90;;;16.20;99.90;;;;;;4898818;29;20064;-81
2022/05/04 07:50:42;;;;;;;1999.90;999.90;;;18.70;99.90;;;;;;4891273;29;20036;-80
2022/05/04 07:53:08;;;;;;;1999.90;999.90;;;21.00;97.90;;;;;;4892529;29;20032;-80
2022/05/04 07:55:36;;;;;;;1999.90;999.90;;;23.00;95.20;;;;;;4893307;29;20049;-80
2022/05/04 07:58:02;;;;;;;1999.90;999.90;;;23.90;93.10;;;;;;4891634;29;20444;-80
2022/05/04 08:05:56;;;;;;;1999.90;999.90;;;26.00;90.20;;;;;;4887556;29;20081;-80
2022/05/04 08:08:22;;;;;;;1999.90;999.90;;;26.10;88.90;;;;;;4893187;29;20112;-80
2022/05/04 08:10:48;;;;;;;1999.90;999.90;;;26.70;87.70;;;;;;4891819;29;20044;-80
2022/05/04 08:13:14;;;;;;;1999.90;999.90;;;27.00;87.90;;;;;;4889686;29;20032;-80
2022/05/04 08:15:40;;;;;;;1999.90;999.90;;;26.90;87.40;;;;;;4893651;29;20033;-81
2022/05/04 08:18:06;;;;;;;1999.90;999.90;;;27.40;85.70;;;;;;4885270;29;20049;-80
2022/05/04 08:20:32;;;;;;;1999.90;999.90;;;28.00;85.30;;;;;;4889099;29;20032;-80
2022/05/04 08:22:59;;;;;;;1999.90;999.90;;;27.60;84.20;;;;;;4890444;29;20039;-80
2022/05/04 08:25:25;;;;;;;1999.90;999.90;;;27.90;84.80;;;;;;4894200;29;20187;-80
2022/05/04 08:27:51;;;;;;;1999.90;999.90;;;28.50;82.60;;;;;;4885502;29;20029;-80
2022/05/04 08:30:17;;;;;;;1999.90;999.90;;;28.20;82.00;;;;;;4891737;29;20044;-80
2022/05/04 08:32:47;;;;;;;1999.90;999.90;;;28.20;82.30;;;;;;4896335;29;20032;-80
2022/05/04 08:35:13;;;;;;;1999.90;999.90;;;28.40;82.40;;;;;;4890513;29;20036;-81
2022/05/04 08:37:39;;;;;;;1999.90;999.90;;;28.60;81.90;;;;;;4902914;29;20049;-79
2022/05/04 08:40:05;;;;;;;1999.90;999.90;;;28.80;81.40;;;;;;4891313;29;20484;-80
2022/05/04 08:42:31;;;;;;;1999.90;999.90;;;28.50;80.80;;;;;;4892577;29;20044;-80
2022/05/04 08:44:58;;;;;;;1999.90;999.90;;;29.20;79.60;;;;;;4889035;29;20077;-79
2022/05/04 08:47:28;;;;;;;1999.90;999.90;;;28.80;78.70;;;;;;4890276;29;20456;-79
2022/05/04 08:49:54;;;;;;;1999.90;999.90;;;29.00;79.30;;;;;;4880270;29;20516;-79
2022/05/04 08:52:21;;;;;;;1999.90;999.90;;;29.00;79.00;;;;;;4892485;29;20024;-79
2022/05/04 08:54:49;;;;;;;1999.90;999.90;;;29.40;79.10;;;;;;4894572;29;20044;-79
2022/05/04 08:57:14;;;;;;;1999.90;999.90;;;29.20;78.60;;;;;;4888017;29;20055;-80
2022/05/04 08:59:41;;;;;;;1999.90;999.90;;;30.10;79.30;;;;;;4894729;29;20623;-80
2022/05/04 09:02:08;;;;;;;1999.90;999.90;;;30.50;77.30;;;;;;4894675;29;20025;-80
2022/05/04 09:04:33;;;;;;;1999.90;999.90;;;30.80;75.50;;;;;;4888322;29;20065;-79
2022/05/04 09:07:01;;;;;;;1999.90;999.90;;;30.60;75.10;;;;;;4891020;29;20535;-80
2022/05/04 09:09:27;;;;;;;1999.90;999.90;;;30.50;76.10;;;;;;4886221;29;20033;-80
2022/05/04 09:11:53;;;;;;;1999.90;999.90;;;30.50;76.70;;;;;;4889599;29;20035;-80
2022/05/04 09:14:20;;;;;;;1999.90;999.90;;;30.20;75.80;;;;;;4889412;29;20036;-80
2022/05/04 09:16:50;;;;;;;1999.90;999.90;;;30.30;75.30;;;;;;4892882;29;20032;-79
2022/05/04 09:19:20;;;;;;;1999.90;999.90;;;30.10;77.10;;;;;;4886373;29;20064;-79
2022/05/04 09:21:47;;;;;;;1999.90;999.90;;;30.00;77.20;;;;;;4889749;29;20179;-79
2022/05/04 09:24:26;;;;;;;1999.90;999.90;;;29.90;77.00;;;;;;4888761;29;20504;-79
2022/05/04 09:26:56;;;;;;;1999.90;999.90;;;30.40;77.20;;;;;;4900030;29;20108;-80
2022/05/04 09:29:33;;;;;;;1999.90;999.90;;;30.60;77.70;;;;;;4906723;29;20056;-80
2022/05/04 09:31:59;;;;;;;1999.90;999.90;;;30.50;76.30;;;;;;4893877;29;20031;-80
2022/05/04 09:34:34;;;;;;;1999.90;999.90;;;30.30;76.50;;;;;;4888735;29;20025;-79
2022/05/04 09:45:55;;;;;;;1999.90;999.90;;;29.70;76.60;;;;;;4861683;29;20037;-81
2022/05/04 09:48:32;;;;;;;1999.90;999.90;;;29.50;76.80;;;;;;4883707;29;20048;-81
2022/05/04 09:51:08;;;;;;;1999.90;999.90;;;29.20;77.40;;;;;;4897776;29;20027;-82
2022/05/04 09:53:36;;;;;;;1999.90;999.90;;;29.10;77.20;;;;;;4890761;29;20040;-79
2022/05/04 09:56:03;;;;;;;1999.90;999.90;;;29.10;77.40;;;;;;4892085;29;20027;-79
2022/05/04 09:58:30;;;;;;;1999.90;999.90;;;29.50;77.30;;;;;;4894647;29;20092;-82
2022/05/04 10:00:58;;;;;;;1999.90;999.90;;;29.50;77.40;;;;;;4902798;29;20057;-83
2022/05/04 10:03:24;;;;;;;1999.90;999.90;;;29.50;76.50;;;;;;4893563;29;20029;-81
2022/05/04 10:05:50;;;;;;;1999.90;999.90;;;29.20;77.40;;;;;;4884634;29;20021;-80
2022/05/04 10:08:17;;;;;;;1999.90;999.90;;;29.60;78.00;;;;;;4903918;29;20185;-80
2022/05/04 10:10:44;;;;;;;1999.90;999.90;;;29.50;76.90;;;;;;4902876;29;20095;-81
2022/05/04 10:13:10;;;;;;;1999.90;999.90;;;29.50;77.10;;;;;;4897143;29;20044;-82
2022/05/04 10:15:40;;;;;;;1999.90;999.90;;;29.40;76.60;;;;;;4887973;29;20455;-80
2022/05/04 10:18:24;;;;;;;1999.90;999.90;;;29.30;76.50;;;;;;4901173;29;20067;-79
2022/05/04 10:21:12;;;;;;;1999.90;999.90;;;29.00;77.10;;;;;;4909494;29;20559;-80
2022/05/04 10:23:46;;;;;;;1999.90;999.90;;;29.30;77.10;;;;;;4903891;29;20473;-82
2022/05/04 10:26:12;;;;;;;1999.90;999.90;;;29.70;76.50;;;;;;4892222;29;20020;-80
2022/05/04 10:30:29;;;;;;;1999.90;999.90;;;29.00;76.10;;;;;;4879881;29;20040;-79
2022/05/04 10:31:28;;;;;;;1999.90;999.90;;;28.40;78.20;;;;;;4890874;29;20032;-80
2022/05/04 10:33:56;;;;;;;1999.90;999.90;;;28.70;78.20;;;;;;4882590;29;20024;-79
2022/05/04 10:36:30;;;;;;;1999.90;999.90;;;28.50;77.70;;;;;;4888298;29;20036;-79
2022/05/04 10:39:06;;;;;;;1999.90;999.90;;;27.20;79.60;;;;;;4894418;29;20036;-81
2022/05/04 10:41:39;;;;;;;1999.90;999.90;;;27.70;81.10;;;;;;4893635;29;20040;-78
2022/05/04 10:44:09;;;;;;;1999.90;999.90;;;27.90;78.90;;;;;;4898726;29;20035;-79
2022/05/04 10:46:39;;;;;;;1999.90;999.90;;;28.10;78.70;;;;;;4891550;29;20044;-79
2022/05/04 10:49:07;;;;;;;1999.90;999.90;;;27.00;80.10;;;;;;4900726;29;20037;-79
2022/05/04 10:51:35;;;;;;;1999.90;999.90;;;25.60;83.30;;;;;;4888393;29;20020;-78
2022/05/04 10:54:08;;;;;;;1999.90;999.90;;;24.60;85.50;;;;;;4891450;29;20469;-78
2022/05/04 10:56:44;;;;;;;1999.90;999.90;;;24.80;84.00;;;;;;4892025;29;20039;-77
2022/05/04 10:59:11;;;;;;;1999.90;999.90;;;25.90;83.40;;;;;;4887324;29;20504;-79
2022/05/04 11:01:40;;;;;;;1999.90;999.90;;;26.10;83.10;;;;;;4895867;29;20033;-78
2022/05/04 11:04:09;;;;;;;1999.90;999.90;;;26.80;81.20;;;;;;4884697;29;20032;-78
2022/05/04 11:06:43;;;;;;;1999.90;999.90;;;26.40;80.50;;;;;;4887338;29;20486;-78
2022/05/04 11:09:17;;;;;;;1999.90;999.90;;;26.50;80.10;;;;;;4890380;29;20400;-78
2022/05/04 11:11:45;;;;;;;1999.90;999.90;;;26.90;80.10;;;;;;4887696;29;20108;-78
2022/05/04 11:14:12;;;;;;;1999.90;999.90;;;27.50;78.90;;;;;;4899513;29;20024;-79
2022/05/04 11:16:39;;;;;;;1999.90;999.90;;;28.10;78.30;;;;;;4899948;29;20491;-78
2022/05/04 11:19:06;;;;;;;1999.90;999.90;;;28.40;77.30;;;;;;4905557;29;20488;-79
2022/05/04 11:21:33;;;;;;;1999.90;999.90;;;28.40;77.10;;;;;;4892359;29;20162;-78
2022/05/04 11:24:02;;;;;;;1999.90;999.90;;;27.90;76.90;;;;;;4899131;29;20462;-79
2022/05/04 11:26:35;;;;;;;1999.90;999.90;;;27.10;78.40;;;;;;4890684;29;20043;-78
2022/05/04 11:29:06;;;;;;;1999.90;999.90;;;27.00;76.60;;;;;;4888697;29;20087;-78
2022/05/04 11:31:32;;;;;;;1999.90;999.90;;;26.10;78.90;;;;;;4881660;29;20025;-78
2022/05/04 11:33:58;;;;;;;1999.90;999.90;;;24.80;80.90;;;;;;4889093;29;20442;-78
2022/05/04 11:36:23;;;;;;;1999.90;999.90;;;24.00;82.50;;;;;;4902060;29;20472;-79
2022/05/04 11:38:49;;;;;;;1999.90;999.90;;;23.50;83.70;;;;;;4890350;29;20041;-77
2022/05/04 11:41:16;;;;;;;1999.90;999.90;;;22.90;86.80;;;;;;4892077;29;20090;-77
2022/05/04 11:43:43;;;;;;;1999.90;999.90;;;23.00;86.20;;;;;;4896013;29;20135;-77
2022/05/04 11:46:10;;;;;;;1999.90;999.90;;;23.10;86.20;;;;;;4889494;29;20077;-77
2022/05/04 11:48:42;;;;;;;1999.90;999.90;;;23.40;84.10;;;;;;4894386;29;20033;-77
2022/05/04 11:51:09;;;;;;;1999.90;999.90;;;23.20;84.80;;;;;;4897460;29;20107;-77
2022/05/04 11:53:36;;;;;;;1999.90;999.90;;;23.00;86.60;;;;;;4887589;29;20264;-78
2022/05/04 11:56:04;;;;;;;1999.90;999.90;;;22.90;86.40;;;;;;4884620;29;20036;-80
2022/05/04 11:58:31;;;;;;;1999.90;999.90;;;22.60;87.60;;;;;;4888630;29;20088;-78
2022/05/04 12:00:57;;;;;;;1999.90;999.90;;;22.00;89.30;;;;;;4887134;29;20112;-78
2022/05/04 12:03:24;;;;;;;1999.90;999.90;;;21.90;89.10;;;;;;4888152;29;20036;-78
2022/05/04 12:05:52;;;;;;;1999.90;999.90;;;22.10;89.30;;;;;;4881333;29;20040;-79
2022/05/04 12:08:19;;;;;;;1999.90;999.90;;;22.00;90.00;;;;;;4889020;29;20103;-79
2022/05/04 12:10:46;;;;;;;1999.90;999.90;;;21.80;90.00;;;;;;4887870;29;20039;-79
2022/05/04 12:13:15;;;;;;;1999.90;999.90;;;21.80;89.60;;;;;;4893650;29;20046;-78
2022/05/04 12:15:42;;;;;;;1999.90;999.90;;;21.80;89.60;;;;;;4886091;29;20033;-78
2022/05/04 12:18:11;;;;;;;1999.90;999.90;;;22.20;89.90;;;;;;4893348;29;20025;-79
2022/05/04 12:20:36;;;;;;;1999.90;999.90;;;23.10;88.50;;;;;;4899308;29;20063;-77
2022/05/04 12:23:03;;;;;;;1999.90;999.90;;;22.60;88.20;;;;;;4895895;29;20063;-77
2022/05/04 12:25:31;;;;;;;1999.90;999.90;;;23.20;87.50;;;;;;4895202;29;20032;-77
2022/05/04 12:27:57;;;;;;;1999.90;999.90;;;23.80;84.80;;;;;;4892064;29;20037;-77
2022/05/04 12:33:10;;;;;;;1999.90;999.90;;;24.10;83.70;;;;;;4891659;29;20040;-77
2022/05/04 12:35:42;;;;;;;1999.90;999.90;;;24.20;83.20;;;;;;4892912;29;20124;-76
2022/05/04 12:38:09;;;;;;;1999.90;999.90;;;23.80;84.60;;;;;;4897240;29;20449;-75
2022/05/04 12:40:35;;;;;;;1999.90;999.90;;;23.70;85.20;;;;;;4893875;29;20033;-76